Time;durP1;ratioP1;P1;durP2;ratioP2;P2;SDS_P1;SDS_P2;PMS_P1;PMS_P2;Temp;Humidity;BMP_temperature;BMP_pressure;BME280_temperature;BME280_humidity;BME280_pressure;Samples;Min_cycle;Max_cycle;Signal;HPM_P1;HPM_P2
2023/03/22 00:01:35;;;;;;;10.53;6.47;;;;;;;;;;5079454;28;20206;-70
2023/03/22 00:04:03;;;;;;;8.20;5.67;;;;;;;;;;5079342;28;20268;-69
2023/03/22 00:06:32;;;;;;;11.13;5.90;;;;;;;;;;5079677;28;20228;-69
2023/03/22 00:09:00;;;;;;;10.63;5.90;;;;;;;;;;5079108;28;20604;-70
2023/03/22 00:11:28;;;;;;;9.57;5.43;;;;;;;;;;5079595;28;20270;-68
2023/03/22 00:13:57;;;;;;;11.13;6.13;;;;;;;;;;5079275;28;20563;-70
2023/03/22 00:16:25;;;;;;;8.07;6.17;;;;;;;;;;5079482;28;20212;-68
2023/03/22 00:18:53;;;;;;;8.97;5.90;;;;;;;;;;5078508;28;20218;-67
2023/03/22 00:21:21;;;;;;;7.70;5.87;;;;;;;;;;5079208;28;20206;-69
2023/03/22 00:23:50;;;;;;;7.37;5.43;;;;;;;;;;5079214;28;20225;-70
2023/03/22 00:26:18;;;;;;;9.47;5.07;;;;;;;;;;5079345;28;20211;-70
2023/03/22 00:28:46;;;;;;;8.20;5.37;;;;;;;;;;5078940;28;20210;-70
2023/03/22 00:31:14;;;;;;;7.43;5.33;;;;;;;;;;5078757;28;20226;-69
2023/03/22 00:33:42;;;;;;;7.53;5.60;;;;;;;;;;5078791;28;20206;-69
2023/03/22 00:36:11;;;;;;;9.23;5.60;;;;;;;;;;5078898;28;20301;-70
2023/03/22 00:38:39;;;;;;;7.97;5.27;;;;;;;;;;5078721;28;20637;-69
2023/03/22 00:41:12;;;;;;;8.60;5.63;;;;;;;;;;5078577;28;20295;-70
2023/03/22 00:43:40;;;;;;;7.50;5.27;;;;;;;;;;5078740;28;20212;-69
2023/03/22 00:46:08;;;;;;;9.40;5.90;;;;;;;;;;5078711;28;20230;-69
2023/03/22 00:48:36;;;;;;;8.50;5.10;;;;;;;;;;5078344;28;20206;-69
2023/03/22 00:51:04;;;;;;;7.67;5.77;;;;;;;;;;5078393;28;20257;-67
2023/03/22 00:53:34;;;;;;;9.63;5.70;;;;;;;;;;5078540;28;20213;-69
2023/03/22 00:56:02;;;;;;;10.47;6.30;;;;;;;;;;5078643;28;20289;-68
2023/03/22 00:58:31;;;;;;;10.73;7.27;;;;;;;;;;5078456;28;20549;-69
2023/03/22 01:00:59;;;;;;;10.73;6.70;;;;;;;;;;5078181;28;20225;-69
2023/03/22 01:03:27;;;;;;;9.13;5.37;;;;;;;;;;5078109;28;20230;-69
2023/03/22 01:05:55;;;;;;;7.97;5.10;;;;;;;;;;5078324;28;20222;-68
2023/03/22 01:08:24;;;;;;;8.57;4.73;;;;;;;;;;5078429;28;20292;-67
2023/03/22 01:10:52;;;;;;;7.27;4.87;;;;;;;;;;5077923;28;20252;-68
2023/03/22 01:13:24;;;;;;;9.37;4.70;;;;;;;;;;5078388;28;20206;-69
2023/03/22 01:15:54;;;;;;;8.03;3.93;;;;;;;;;;5077914;28;20228;-68
2023/03/22 01:18:23;;;;;;;6.33;4.50;;;;;;;;;;5078066;28;20335;-68
2023/03/22 01:20:51;;;;;;;6.63;4.07;;;;;;;;;;5078284;28;20268;-69
2023/03/22 01:23:19;;;;;;;5.83;3.83;;;;;;;;;;5077909;28;20285;-69
2023/03/22 01:25:47;;;;;;;6.23;3.60;;;;;;;;;;5077983;28;20584;-69
2023/03/22 01:28:15;;;;;;;4.03;3.63;;;;;;;;;;5078139;28;20289;-69
2023/03/22 01:30:43;;;;;;;5.07;4.10;;;;;;;;;;5077887;28;20226;-69
2023/03/22 01:33:12;;;;;;;4.23;3.63;;;;;;;;;;5078012;28;20206;-68
2023/03/22 01:35:40;;;;;;;6.60;4.47;;;;;;;;;;5078146;28;20241;-68
2023/03/22 01:38:08;;;;;;;5.10;3.37;;;;;;;;;;5078042;28;20287;-69
2023/03/22 01:40:36;;;;;;;5.47;3.80;;;;;;;;;;5077737;28;20226;-69
2023/03/22 01:43:06;;;;;;;7.13;3.70;;;;;;;;;;5077748;28;20245;-69
2023/03/22 01:45:36;;;;;;;5.83;3.50;;;;;;;;;;5077934;28;20244;-68
2023/03/22 01:48:07;;;;;;;6.10;3.80;;;;;;;;;;5077601;28;20210;-68
2023/03/22 01:50:37;;;;;;;5.77;3.77;;;;;;;;;;5078036;28;20218;-69
2023/03/22 01:53:07;;;;;;;5.73;3.67;;;;;;;;;;5077844;28;20259;-68
2023/03/22 01:55:35;;;;;;;5.40;3.70;;;;;;;;;;5077888;28;20237;-69
2023/03/22 01:58:04;;;;;;;5.57;4.03;;;;;;;;;;5077539;28;20207;-69
2023/03/22 02:00:33;;;;;;;5.80;4.10;;;;;;;;;;5077480;28;20230;-68
2023/03/22 02:03:01;;;;;;;6.57;4.30;;;;;;;;;;5077541;28;20216;-68
2023/03/22 02:05:30;;;;;;;8.33;4.37;;;;;;;;;;5078305;28;20275;-68
2023/03/22 02:07:59;;;;;;;8.50;4.07;;;;;;;;;;5077957;28;20269;-68
2023/03/22 02:10:28;;;;;;;6.93;4.47;;;;;;;;;;5077321;28;20772;-68
2023/03/22 02:13:07;;;;;;;8.53;5.03;;;;;;;;;;5077481;28;20236;-68
2023/03/22 02:15:38;;;;;;;7.20;6.13;;;;;;;;;;5077418;28;20572;-68
2023/03/22 02:18:15;;;;;;;10.33;6.43;;;;;;;;;;5077162;28;20677;-67
2023/03/22 02:21:01;;;;;;;13.90;6.23;;;;;;;;;;5077533;28;20226;-68
2023/03/22 02:23:44;;;;;;;13.30;7.40;;;;;;;;;;5047251;28;20206;-67
2023/03/22 02:26:30;;;;;;;12.43;7.30;;;;;;;;;;5077613;28;20226;-67
2023/03/22 02:29:03;;;;;;;8.23;6.07;;;;;;;;;;5077702;28;20220;-68
2023/03/22 02:31:48;;;;;;;9.67;6.27;;;;;;;;;;5077132;28;20238;-67
2023/03/22 02:34:31;;;;;;;12.37;6.10;;;;;;;;;;5077585;28;20235;-67
2023/03/22 02:37:17;;;;;;;10.53;6.53;;;;;;;;;;5077238;28;20202;-68
2023/03/22 02:39:50;;;;;;;9.60;6.17;;;;;;;;;;5077176;28;20226;-67
2023/03/22 02:42:33;;;;;;;9.73;7.00;;;;;;;;;;5076181;28;20693;-68
2023/03/22 02:45:05;;;;;;;12.90;5.70;;;;;;;;;;5079937;28;20202;-69
2023/03/22 02:47:38;;;;;;;12.07;6.37;;;;;;;;;;5080464;28;20233;-67
2023/03/22 02:50:10;;;;;;;11.83;5.97;;;;;;;;;;5080401;28;20228;-67
2023/03/22 02:52:39;;;;;;;10.43;5.43;;;;;;;;;;5080951;28;20230;-68
2023/03/22 02:55:11;;;;;;;15.30;6.53;;;;;;;;;;5081304;28;20202;-67
2023/03/22 02:57:42;;;;;;;10.30;5.73;;;;;;;;;;5081373;28;20204;-67
2023/03/22 03:00:13;;;;;;;12.97;6.40;;;;;;;;;;5081053;28;20260;-67
2023/03/22 03:02:42;;;;;;;12.50;6.20;;;;;;;;;;5080651;28;20233;-66
2023/03/22 03:05:11;;;;;;;12.10;5.63;;;;;;;;;;5080946;28;20229;-68
2023/03/22 03:07:41;;;;;;;11.17;5.87;;;;;;;;;;5080573;28;20222;-69
2023/03/22 03:10:12;;;;;;;16.97;6.17;;;;;;;;;;5080107;28;20245;-68
2023/03/22 03:12:40;;;;;;;10.37;5.90;;;;;;;;;;5080762;28;20216;-68
2023/03/22 03:15:13;;;;;;;12.57;5.83;;;;;;;;;;5080488;28;20229;-68
2023/03/22 03:17:45;;;;;;;11.83;6.00;;;;;;;;;;5080260;28;20241;-68
2023/03/22 03:20:23;;;;;;;11.13;6.03;;;;;;;;;;5080335;28;20265;-69
2023/03/22 03:22:57;;;;;;;13.50;5.93;;;;;;;;;;5080688;28;20202;-69
2023/03/22 03:25:30;;;;;;;14.83;5.77;;;;;;;;;;5080372;28;20239;-69
2023/03/22 03:28:03;;;;;;;9.10;5.63;;;;;;;;;;5080323;28;20206;-68
2023/03/22 03:30:32;;;;;;;11.80;5.70;;;;;;;;;;5080105;28;20226;-68
2023/03/22 03:33:03;;;;;;;10.03;6.47;;;;;;;;;;5080103;28;20270;-68
2023/03/22 03:35:36;;;;;;;10.40;5.80;;;;;;;;;;5080367;28;20238;-68
2023/03/22 03:38:08;;;;;;;10.93;5.97;;;;;;;;;;5080285;28;20206;-68
2023/03/22 03:40:40;;;;;;;12.33;5.80;;;;;;;;;;5080184;28;20233;-69
2023/03/22 03:43:08;;;;;;;9.30;6.37;;;;;;;;;;5080297;28;20206;-68
2023/03/22 03:45:37;;;;;;;10.30;5.30;;;;;;;;;;5080055;28;20267;-69
2023/03/22 03:48:07;;;;;;;11.30;5.70;;;;;;;;;;5079387;28;20269;-69
2023/03/22 03:50:35;;;;;;;9.93;5.73;;;;;;;;;;5079677;28;20226;-68
2023/03/22 03:53:04;;;;;;;8.13;6.17;;;;;;;;;;5079936;28;20234;-69
2023/03/22 03:55:33;;;;;;;10.73;6.17;;;;;;;;;;5079649;28;20640;-68
2023/03/22 03:58:02;;;;;;;9.90;6.50;;;;;;;;;;5079573;28;20578;-68
2023/03/22 04:00:30;;;;;;;10.53;5.77;;;;;;;;;;5079865;28;20237;-68
2023/03/22 04:02:58;;;;;;;10.47;6.47;;;;;;;;;;5079505;28;20206;-68
2023/03/22 04:05:26;;;;;;;7.83;6.00;;;;;;;;;;5079503;28;20210;-68
2023/03/22 04:07:54;;;;;;;9.80;6.40;;;;;;;;;;5079690;28;20321;-68
2023/03/22 04:10:22;;;;;;;8.73;6.73;;;;;;;;;;5079248;28;20273;-68
2023/03/22 04:12:50;;;;;;;7.60;5.10;;;;;;;;;;5079661;28;20206;-67
2023/03/22 04:15:19;;;;;;;7.83;5.83;;;;;;;;;;5079577;28;20210;-68
2023/03/22 04:17:48;;;;;;;9.27;6.10;;;;;;;;;;5079150;28;20208;-69
2023/03/22 04:20:15;;;;;;;8.13;5.87;;;;;;;;;;5079139;28;20230;-68
2023/03/22 04:22:45;;;;;;;6.40;5.03;;;;;;;;;;5079478;28;20238;-69
2023/03/22 04:25:16;;;;;;;11.03;6.07;;;;;;;;;;5079284;28;20225;-68
2023/03/22 04:27:46;;;;;;;9.23;6.17;;;;;;;;;;5079079;28;20222;-69
2023/03/22 04:30:17;;;;;;;7.63;5.57;;;;;;;;;;5079132;28;20226;-68
2023/03/22 04:32:47;;;;;;;8.23;5.43;;;;;;;;;;5078850;28;20245;-68
2023/03/22 04:35:15;;;;;;;8.37;5.70;;;;;;;;;;5079138;28;20245;-67
2023/03/22 04:37:44;;;;;;;6.80;5.47;;;;;;;;;;5079020;28;20202;-69
2023/03/22 04:40:16;;;;;;;6.70;5.50;;;;;;;;;;5078666;28;20755;-68
2023/03/22 04:42:44;;;;;;;14.27;6.70;;;;;;;;;;5078797;28;20210;-68
2023/03/22 04:45:12;;;;;;;7.77;5.47;;;;;;;;;;5078770;28;20661;-68
2023/03/22 04:47:40;;;;;;;7.23;5.90;;;;;;;;;;5078433;28;20244;-69
2023/03/22 04:50:10;;;;;;;8.83;5.87;;;;;;;;;;5078531;28;20751;-69
2023/03/22 04:52:38;;;;;;;12.17;6.00;;;;;;;;;;5078169;28;20252;-68
2023/03/22 04:55:07;;;;;;;8.27;5.70;;;;;;;;;;5077675;28;20194;-68
2023/03/22 04:57:35;;;;;;;8.03;5.50;;;;;;;;;;5079333;28;20251;-68
2023/03/22 05:00:07;;;;;;;8.73;5.30;;;;;;;;;;5080135;28;20222;-68
2023/03/22 05:02:36;;;;;;;9.30;5.70;;;;;;;;;;5077225;28;20198;-68
2023/03/22 05:05:07;;;;;;;11.50;6.23;;;;;;;;;;5075198;28;20222;-68
2023/03/22 05:07:38;;;;;;;11.27;5.73;;;;;;;;;;5078673;28;20260;-68
2023/03/22 05:10:06;;;;;;;7.80;5.60;;;;;;;;;;5076158;28;20276;-68
2023/03/22 05:12:34;;;;;;;8.77;5.83;;;;;;;;;;5078224;28;20662;-68
2023/03/22 05:15:04;;;;;;;8.47;6.27;;;;;;;;;;5076940;28;20281;-67
2023/03/22 05:17:32;;;;;;;11.37;5.80;;;;;;;;;;5078806;28;20281;-69
2023/03/22 05:20:08;;;;;;;8.40;5.70;;;;;;;;;;5077081;28;20234;-67
2023/03/22 05:22:39;;;;;;;7.97;5.03;;;;;;;;;;5077913;28;20232;-68
2023/03/22 05:25:09;;;;;;;11.00;6.30;;;;;;;;;;5078784;28;20224;-68
2023/03/22 05:27:37;;;;;;;11.90;6.30;;;;;;;;;;5077085;28;20218;-69
2023/03/22 05:30:06;;;;;;;8.13;5.73;;;;;;;;;;5077597;28;20282;-68
2023/03/22 05:32:36;;;;;;;8.07;5.10;;;;;;;;;;5076396;28;20665;-69
2023/03/22 05:35:05;;;;;;;7.70;5.50;;;;;;;;;;5078538;28;20688;-69
2023/03/22 05:37:33;;;;;;;12.03;5.73;;;;;;;;;;5079222;28;20256;-68
2023/03/22 05:40:04;;;;;;;12.93;6.33;;;;;;;;;;5077134;28;20214;-68
2023/03/22 05:42:32;;;;;;;11.00;5.37;;;;;;;;;;5076798;28;20209;-68
2023/03/22 05:45:00;;;;;;;11.43;5.60;;;;;;;;;;5077615;28;20288;-69
2023/03/22 05:47:28;;;;;;;10.90;5.67;;;;;;;;;;5077803;28;20289;-68
2023/03/22 05:49:56;;;;;;;14.83;5.63;;;;;;;;;;5076139;28;20627;-68
2023/03/22 05:52:24;;;;;;;13.60;6.10;;;;;;;;;;5078118;28;20198;-67
2023/03/22 05:54:52;;;;;;;14.17;5.63;;;;;;;;;;5084260;28;20205;-69
2023/03/22 05:57:21;;;;;;;14.00;5.47;;;;;;;;;;5071410;28;20293;-68
2023/03/22 05:59:52;;;;;;;10.37;5.50;;;;;;;;;;5078755;28;20234;-68
2023/03/22 06:02:20;;;;;;;8.97;5.53;;;;;;;;;;5074236;28;20198;-68
2023/03/22 06:04:49;;;;;;;8.97;5.10;;;;;;;;;;5078568;28;20226;-68
2023/03/22 06:07:16;;;;;;;10.97;5.30;;;;;;;;;;5078084;28;20218;-68
2023/03/22 06:09:44;;;;;;;8.07;5.43;;;;;;;;;;5076889;28;20241;-68
2023/03/22 06:12:14;;;;;;;12.43;5.30;;;;;;;;;;5077391;28;20198;-69
2023/03/22 06:14:44;;;;;;;9.73;5.50;;;;;;;;;;5076314;28;20213;-68
2023/03/22 06:17:12;;;;;;;8.37;4.90;;;;;;;;;;5075028;28;20615;-69
2023/03/22 06:19:40;;;;;;;8.97;5.13;;;;;;;;;;5082738;28;20232;-69
2023/03/22 06:22:08;;;;;;;7.53;4.83;;;;;;;;;;5080242;28;20201;-68
2023/03/22 06:24:36;;;;;;;9.17;5.07;;;;;;;;;;5080528;28;20198;-68
2023/03/22 06:27:04;;;;;;;7.67;5.00;;;;;;;;;;5081306;28;20206;-68
2023/03/22 06:29:32;;;;;;;9.63;5.30;;;;;;;;;;5082117;28;20228;-67
2023/03/22 06:32:02;;;;;;;10.07;5.20;;;;;;;;;;5079582;28;20274;-69
2023/03/22 06:34:30;;;;;;;8.03;5.10;;;;;;;;;;5079778;28;20679;-69
2023/03/22 06:36:58;;;;;;;7.60;4.67;;;;;;;;;;5080542;28;20233;-68
2023/03/22 06:39:26;;;;;;;7.63;5.30;;;;;;;;;;5081848;28;20627;-68
2023/03/22 06:41:54;;;;;;;6.20;4.77;;;;;;;;;;5082294;28;20665;-68
2023/03/22 06:44:22;;;;;;;9.03;4.87;;;;;;;;;;5080356;28;20237;-69
2023/03/22 06:46:50;;;;;;;7.40;4.97;;;;;;;;;;5078028;28;20202;-69
2023/03/22 06:49:20;;;;;;;8.50;4.70;;;;;;;;;;5081781;28;20237;-69
2023/03/22 06:51:48;;;;;;;7.57;5.43;;;;;;;;;;5082217;28;20625;-68
2023/03/22 06:54:16;;;;;;;7.97;5.90;;;;;;;;;;5079693;28;20249;-69
2023/03/22 06:56:44;;;;;;;7.67;5.50;;;;;;;;;;5079757;28;20222;-68
2023/03/22 06:59:12;;;;;;;6.57;5.17;;;;;;;;;;5096667;28;20276;-68
2023/03/22 07:01:40;;;;;;;10.10;5.50;;;;;;;;;;5100192;28;20314;-68
2023/03/22 07:04:08;;;;;;;7.93;5.13;;;;;;;;;;5100334;28;20665;-69
2023/03/22 07:06:38;;;;;;;8.37;4.90;;;;;;;;;;5100968;28;20209;-69
2023/03/22 07:09:06;;;;;;;14.90;4.87;;;;;;;;;;5100639;28;20226;-68
2023/03/22 07:11:34;;;;;;;6.73;4.40;;;;;;;;;;5100808;28;20205;-69
2023/03/22 07:14:02;;;;;;;5.80;4.57;;;;;;;;;;5100644;28;20739;-69
2023/03/22 07:16:30;;;;;;;8.03;4.60;;;;;;;;;;5100535;28;20206;-69
2023/03/22 07:18:58;;;;;;;5.93;4.83;;;;;;;;;;5100420;28;20724;-69
2023/03/22 07:21:26;;;;;;;10.00;5.10;;;;;;;;;;5100838;28;20205;-69
2023/03/22 07:23:55;;;;;;;10.07;5.20;;;;;;;;;;5095098;28;20198;-69
2023/03/22 07:26:24;;;;;;;8.43;5.30;;;;;;;;;;5083858;28;20205;-68
2023/03/22 07:28:55;;;;;;;7.80;5.27;;;;;;;;;;5080376;28;20272;-69
2023/03/22 07:31:23;;;;;;;9.13;5.17;;;;;;;;;;5081356;28;20225;-69
2023/03/22 07:33:51;;;;;;;8.63;4.70;;;;;;;;;;5078682;28;20203;-69
2023/03/22 07:36:22;;;;;;;12.83;5.80;;;;;;;;;;5079639;28;20289;-68
2023/03/22 07:38:51;;;;;;;10.83;5.57;;;;;;;;;;5079945;28;20724;-69
2023/03/22 07:41:22;;;;;;;11.20;5.67;;;;;;;;;;5078010;28;20291;-70
2023/03/22 07:43:50;;;;;;;7.77;5.37;;;;;;;;;;5078932;28;20229;-69
2023/03/22 07:46:28;;;;;;;8.70;5.03;;;;;;;;;;5078827;28;20220;-68
2023/03/22 07:48:56;;;;;;;7.93;4.97;;;;;;;;;;5090183;28;20585;-67
2023/03/22 07:51:24;;;;;;;7.63;5.13;;;;;;;;;;5081220;28;20758;-69
2023/03/22 07:53:52;;;;;;;8.77;4.43;;;;;;;;;;5080325;28;20210;-68
2023/03/22 07:56:22;;;;;;;10.60;5.00;;;;;;;;;;5079849;28;20202;-69
2023/03/22 07:58:50;;;;;;;9.93;5.20;;;;;;;;;;5078894;28;20201;-66
2023/03/22 08:01:18;;;;;;;8.60;4.70;;;;;;;;;;5080507;28;20226;-69
2023/03/22 08:03:46;;;;;;;6.53;4.43;;;;;;;;;;5072845;28;20203;-68
2023/03/22 08:06:15;;;;;;;6.10;4.67;;;;;;;;;;5078827;28;20206;-69
2023/03/22 08:08:43;;;;;;;5.23;4.37;;;;;;;;;;5079361;28;20286;-63
2023/03/22 08:11:11;;;;;;;5.17;4.63;;;;;;;;;;5079103;28;20241;-62
2023/03/22 08:13:40;;;;;;;8.80;4.93;;;;;;;;;;5079452;28;20240;-63
2023/03/22 08:16:08;;;;;;;8.03;5.03;;;;;;;;;;5079244;28;20194;-63
2023/03/22 08:18:36;;;;;;;9.67;4.93;;;;;;;;;;5078993;28;20205;-70
2023/03/22 08:21:04;;;;;;;6.60;4.73;;;;;;;;;;5075741;28;20218;-68
2023/03/22 08:23:32;;;;;;;7.70;4.30;;;;;;;;;;5078762;28;20234;-70
2023/03/22 08:26:08;;;;;;;7.67;4.70;;;;;;;;;;5082322;28;20565;-68
2023/03/22 08:28:36;;;;;;;11.43;4.50;;;;;;;;;;5078956;28;20249;-69
2023/03/22 08:31:11;;;;;;;9.07;4.97;;;;;;;;;;5078907;28;20244;-70
2023/03/22 08:33:42;;;;;;;6.73;4.70;;;;;;;;;;5079945;28;20230;-70
2023/03/22 08:36:11;;;;;;;10.93;4.60;;;;;;;;;;5091643;28;20213;-70
2023/03/22 08:38:41;;;;;;;8.43;4.33;;;;;;;;;;5071625;28;20279;-71
2023/03/22 08:41:09;;;;;;;8.93;4.50;;;;;;;;;;5077853;28;20222;-69
2023/03/22 08:43:37;;;;;;;9.67;4.30;;;;;;;;;;5078705;28;20244;-72
2023/03/22 08:46:05;;;;;;;8.27;4.57;;;;;;;;;;5078551;28;20225;-70
2023/03/22 08:48:36;;;;;;;7.87;4.30;;;;;;;;;;5078268;28;20222;-70
2023/03/22 08:51:05;;;;;;;7.37;4.50;;;;;;;;;;5078466;28;20300;-69
2023/03/22 08:53:33;;;;;;;9.77;5.00;;;;;;;;;;5078388;28;20237;-70
2023/03/22 08:56:02;;;;;;;11.07;5.43;;;;;;;;;;5074272;28;20238;-70
2023/03/22 08:58:30;;;;;;;13.90;6.20;;;;;;;;;;5078678;28;20217;-69
2023/03/22 09:00:58;;;;;;;13.87;7.50;;;;;;;;;;5077925;28;20229;-68
2023/03/22 09:03:26;;;;;;;12.83;6.50;;;;;;;;;;5078512;28;20206;-70
2023/03/22 09:05:56;;;;;;;12.30;6.97;;;;;;;;;;5078262;28;20210;-69
2023/03/22 09:08:24;;;;;;;13.57;7.10;;;;;;;;;;5075813;28;20201;-68
2023/03/22 09:10:52;;;;;;;14.43;7.00;;;;;;;;;;5086632;28;20248;-69
2023/03/22 09:13:20;;;;;;;11.77;6.90;;;;;;;;;;5080990;28;20197;-69
2023/03/22 09:15:48;;;;;;;10.17;6.00;;;;;;;;;;5078511;28;20263;-70
2023/03/22 09:18:16;;;;;;;14.60;7.33;;;;;;;;;;5078065;28;20293;-69
2023/03/22 09:20:44;;;;;;;14.60;8.40;;;;;;;;;;5077854;28;20268;-80
2023/03/22 09:23:15;;;;;;;75.60;50.20;;;;;;;;;;5078033;28;20210;-79
2023/03/22 09:25:43;;;;;;;68.90;45.13;;;;;;;;;;5076117;28;20554;-79
2023/03/22 09:28:11;;;;;;;44.67;31.03;;;;;;;;;;5079482;28;20206;-80
2023/03/22 09:30:39;;;;;;;79.90;50.63;;;;;;;;;;5079715;28;20313;-80
2023/03/22 09:33:07;;;;;;;37.47;25.33;;;;;;;;;;5078850;28;20210;-80
2023/03/22 09:35:35;;;;;;;17.97;12.13;;;;;;;;;;5079086;28;20289;-79
2023/03/22 09:38:05;;;;;;;14.63;10.17;;;;;;;;;;5078410;28;20239;-80
2023/03/22 09:40:35;;;;;;;14.07;8.27;;;;;;;;;;5077954;28;20213;-80
2023/03/22 09:43:04;;;;;;;17.90;12.03;;;;;;;;;;5078054;28;20299;-80
2023/03/22 09:45:36;;;;;;;11.63;6.70;;;;;;;;;;5078068;28;20212;-80
2023/03/22 09:48:08;;;;;;;16.70;9.73;;;;;;;;;;5077360;28;20618;-80
2023/03/22 09:50:41;;;;;;;12.13;6.57;;;;;;;;;;5077538;28;20234;-71
2023/03/22 09:53:12;;;;;;;11.47;4.87;;;;;;;;;;5076810;28;20199;-70
2023/03/22 09:55:45;;;;;;;7.40;4.23;;;;;;;;;;5080664;28;20288;-71
2023/03/22 09:58:17;;;;;;;8.23;4.90;;;;;;;;;;5077885;28;20210;-74
2023/03/22 10:00:47;;;;;;;8.43;4.70;;;;;;;;;;5077014;28;20225;-69
2023/03/22 10:03:19;;;;;;;8.20;3.80;;;;;;;;;;5077682;28;20260;-69
2023/03/22 10:05:50;;;;;;;12.70;4.50;;;;;;;;;;5077511;28;20214;-70
2023/03/22 10:08:26;;;;;;;8.07;4.37;;;;;;;;;;5077577;28;20606;-70
2023/03/22 10:10:56;;;;;;;9.93;4.83;;;;;;;;;;5080946;28;20272;-69
2023/03/22 10:13:30;;;;;;;9.60;4.63;;;;;;;;;;5073566;28;20198;-70
2023/03/22 10:15:59;;;;;;;7.93;4.00;;;;;;;;;;5077525;28;20292;-69
2023/03/22 10:18:31;;;;;;;10.33;4.20;;;;;;;;;;5076933;28;20648;-70
2023/03/22 10:21:01;;;;;;;12.33;4.43;;;;;;;;;;5066470;28;20222;-70
2023/03/22 10:23:30;;;;;;;6.13;4.40;;;;;;;;;;5077428;28;20206;-71
2023/03/22 10:26:01;;;;;;;6.77;3.77;;;;;;;;;;5084089;28;20561;-68
2023/03/22 10:28:31;;;;;;;7.20;3.43;;;;;;;;;;5077434;28;20210;-70
2023/03/22 10:30:59;;;;;;;7.20;3.27;;;;;;;;;;5076175;28;20673;-73
2023/03/22 10:33:34;;;;;;;5.13;3.00;;;;;;;;;;5076307;28;20560;-71
2023/03/22 10:36:03;;;;;;;8.20;3.97;;;;;;;;;;5072334;28;20205;-68
2023/03/22 10:38:32;;;;;;;7.97;3.80;;;;;;;;;;5074869;28;20285;-67
2023/03/22 10:41:02;;;;;;;5.50;4.00;;;;;;;;;;5076186;28;20744;-66
2023/03/22 10:43:32;;;;;;;5.93;3.43;;;;;;;;;;5076330;28;20213;-66
2023/03/22 10:46:02;;;;;;;8.43;3.63;;;;;;;;;;5076615;28;20233;-66
2023/03/22 10:48:32;;;;;;;3.43;2.10;;;;;;;;;;5075898;28;20270;-66
2023/03/22 10:51:00;;;;;;;5.93;2.33;;;;;;;;;;5076187;28;20265;-66
2023/03/22 10:53:30;;;;;;;5.13;2.33;;;;;;;;;;5076218;28;20215;-66
2023/03/22 10:55:58;;;;;;;5.07;2.47;;;;;;;;;;5076161;28;20296;-66
2023/03/22 10:58:30;;;;;;;2.37;2.07;;;;;;;;;;5076618;28;20237;-66
2023/03/22 11:00:59;;;;;;;4.37;2.50;;;;;;;;;;5075896;28;20254;-66
2023/03/22 11:03:29;;;;;;;3.27;2.43;;;;;;;;;;5076591;28;20236;-66
2023/03/22 11:06:01;;;;;;;5.37;2.60;;;;;;;;;;5079972;28;20217;-66
2023/03/22 11:08:29;;;;;;;3.40;2.43;;;;;;;;;;5080017;28;20213;-65
2023/03/22 11:10:59;;;;;;;2.53;1.93;;;;;;;;;;5080851;28;20234;-66
2023/03/22 11:13:27;;;;;;;3.67;2.30;;;;;;;;;;5078758;28;20382;-66
2023/03/22 11:16:01;;;;;;;3.07;1.97;;;;;;;;;;5080445;28;20198;-65
2023/03/22 11:18:31;;;;;;;2.10;1.73;;;;;;;;;;5080732;28;20672;-65
2023/03/22 11:21:00;;;;;;;3.13;1.60;;;;;;;;;;5080660;28;20229;-65
2023/03/22 11:23:31;;;;;;;2.47;1.73;;;;;;;;;;5080365;28;20657;-65
2023/03/22 11:26:00;;;;;;;2.23;1.33;;;;;;;;;;5080482;28;20210;-65
2023/03/22 11:28:32;;;;;;;2.97;1.60;;;;;;;;;;5080173;28;20309;-65
2023/03/22 11:31:05;;;;;;;1.30;1.20;;;;;;;;;;5080025;28;20293;-66
2023/03/22 11:33:33;;;;;;;2.27;1.50;;;;;;;;;;5079924;28;20332;-73
2023/03/22 11:36:02;;;;;;;2.47;1.87;;;;;;;;;;5080773;28;20259;-72
2023/03/22 11:38:35;;;;;;;2.67;2.30;;;;;;;;;;5080360;28;20210;-71
2023/03/22 11:41:04;;;;;;;3.23;2.70;;;;;;;;;;5079938;28;20222;-67
2023/03/22 11:43:34;;;;;;;4.07;2.07;;;;;;;;;;5080104;28;20242;-70
2023/03/22 11:46:04;;;;;;;2.57;2.13;;;;;;;;;;5080101;28;20214;-70
2023/03/22 11:48:33;;;;;;;3.30;1.77;;;;;;;;;;5079695;28;20549;-67
2023/03/22 11:51:06;;;;;;;4.67;2.17;;;;;;;;;;5079827;28;20229;-66
2023/03/22 11:53:37;;;;;;;2.27;1.50;;;;;;;;;;5079771;28;20596;-70
2023/03/22 11:56:06;;;;;;;2.10;1.83;;;;;;;;;;5078651;28;20224;-70
2023/03/22 11:58:44;;;;;;;1.23;1.20;;;;;;;;;;5089638;28;20201;-65
2023/03/22 12:01:16;;;;;;;1.33;1.10;;;;;;;;;;5100031;28;20233;-66
2023/03/22 12:03:45;;;;;;;0.90;0.90;;;;;;;;;;5099910;28;20208;-66
2023/03/22 12:06:18;;;;;;;1.40;1.30;;;;;;;;;;5099748;28;20650;-65
2023/03/22 12:08:49;;;;;;;2.57;1.20;;;;;;;;;;5100026;28;20227;-65
2023/03/22 12:11:21;;;;;;;1.67;1.27;;;;;;;;;;5099886;28;20237;-65
2023/03/22 12:13:51;;;;;;;1.70;1.03;;;;;;;;;;5100145;28;20573;-66
2023/03/22 12:16:22;;;;;;;1.27;1.10;;;;;;;;;;5098584;28;20207;-66
2023/03/22 12:19:00;;;;;;;1.10;0.97;;;;;;;;;;5097607;28;20215;-66
2023/03/22 12:21:29;;;;;;;1.27;1.00;;;;;;;;;;5070875;28;20236;-66
2023/03/22 12:23:59;;;;;;;1.00;0.90;;;;;;;;;;5079436;28;20194;-66
2023/03/22 12:26:28;;;;;;;2.17;1.20;;;;;;;;;;5079803;28;20233;-66
2023/03/22 12:28:57;;;;;;;1.73;1.30;;;;;;;;;;5079005;28;20665;-65
2023/03/22 12:31:28;;;;;;;1.37;1.23;;;;;;;;;;5078874;28;20226;-65
2023/03/22 12:34:01;;;;;;;2.00;1.47;;;;;;;;;;5079102;28;20232;-67
2023/03/22 12:36:31;;;;;;;1.37;1.13;;;;;;;;;;5079094;28;20293;-65
2023/03/22 12:39:02;;;;;;;2.03;1.00;;;;;;;;;;5079067;28;20210;-65
2023/03/22 12:41:32;;;;;;;1.80;1.10;;;;;;;;;;5078854;28;20202;-64
2023/03/22 12:44:01;;;;;;;1.60;1.50;;;;;;;;;;5078793;28;20213;-64
2023/03/22 12:46:32;;;;;;;1.87;1.33;;;;;;;;;;5077889;28;20255;-64
2023/03/22 12:49:02;;;;;;;3.37;1.50;;;;;;;;;;5078399;28;20299;-65
2023/03/22 12:51:30;;;;;;;2.43;1.57;;;;;;;;;;5078667;28;20225;-64
2023/03/22 12:53:59;;;;;;;7.20;3.27;;;;;;;;;;5078500;28;20207;-64
2023/03/22 12:56:32;;;;;;;2.10;2.00;;;;;;;;;;5078331;28;20611;-64
2023/03/22 12:59:03;;;;;;;2.00;1.80;;;;;;;;;;5078541;28;20234;-64
2023/03/22 13:01:35;;;;;;;2.83;2.23;;;;;;;;;;5078099;28;20230;-64
2023/03/22 13:04:18;;;;;;;2.03;1.57;;;;;;;;;;5078277;28;20566;-64
2023/03/22 13:06:55;;;;;;;2.10;1.90;;;;;;;;;;5078128;28;20206;-64
2023/03/22 13:09:39;;;;;;;4.97;1.30;;;;;;;;;;5077939;28;20701;-64
2023/03/22 13:12:24;;;;;;;2.63;1.07;;;;;;;;;;5078058;28;20230;-64
2023/03/22 13:14:56;;;;;;;1.00;0.93;;;;;;;;;;5068338;28;20216;-64
2023/03/22 13:17:38;;;;;;;3.27;1.47;;;;;;;;;;5077663;28;20216;-63
2023/03/22 13:20:25;;;;;;;2.30;1.57;;;;;;;;;;5077931;28;20280;-64
2023/03/22 13:23:01;;;;;;;1.20;1.10;;;;;;;;;;5078107;28;20198;-64
2023/03/22 13:25:30;;;;;;;1.17;1.07;;;;;;;;;;5077870;28;20206;-65
2023/03/22 13:27:59;;;;;;;2.87;1.23;;;;;;;;;;5077661;28;20689;-65
2023/03/22 13:30:29;;;;;;;2.50;1.00;;;;;;;;;;5077831;28;20716;-63
2023/03/22 13:33:03;;;;;;;1.40;1.30;;;;;;;;;;5077446;28;20705;-62
2023/03/22 13:35:41;;;;;;;1.30;1.20;;;;;;;;;;5078171;28;20269;-65
2023/03/22 13:38:15;;;;;;;2.60;2.17;;;;;;;;;;5074925;28;20209;-62
2023/03/22 13:40:47;;;;;;;2.60;1.70;;;;;;;;;;5073191;28;20253;-64
2023/03/22 13:43:24;;;;;;;0.83;0.83;;;;;;;;;;5087943;28;20202;-62
2023/03/22 13:46:10;;;;;;;1.33;1.23;;;;;;;;;;5077629;28;20198;-63
2023/03/22 13:48:53;;;;;;;1.87;1.40;;;;;;;;;;5084364;28;20216;-64
2023/03/22 13:51:26;;;;;;;2.20;1.80;;;;;;;;;;5079578;28;20252;-62
2023/03/22 13:53:57;;;;;;;2.40;1.20;;;;;;;;;;5077931;28;20214;-64
2023/03/22 13:56:32;;;;;;;1.47;1.30;;;;;;;;;;5073232;28;20688;-64
2023/03/22 13:59:02;;;;;;;2.03;1.77;;;;;;;;;;5086206;28;20289;-62
2023/03/22 14:01:33;;;;;;;1.77;1.67;;;;;;;;;;5073266;28;20206;-62
2023/03/22 14:04:05;;;;;;;41.40;26.83;;;;;;;;;;5077637;28;20206;-62
2023/03/22 14:06:35;;;;;;;3.40;2.70;;;;;;;;;;5077532;28;20267;-62
2023/03/22 14:09:09;;;;;;;2.83;1.10;;;;;;;;;;5077826;28;20213;-64
2023/03/22 14:11:41;;;;;;;2.43;1.73;;;;;;;;;;5077702;28;20233;-63
2023/03/22 14:14:11;;;;;;;1.03;0.90;;;;;;;;;;5077844;28;20574;-63
2023/03/22 14:16:41;;;;;;;0.60;0.60;;;;;;;;;;5077362;28;20212;-63
2023/03/22 14:19:15;;;;;;;2.07;0.80;;;;;;;;;;5077315;28;20673;-63
2023/03/22 14:21:45;;;;;;;1.00;0.90;;;;;;;;;;5077678;28;20288;-64
2023/03/22 14:24:14;;;;;;;1.13;1.03;;;;;;;;;;5078402;28;20638;-63
2023/03/22 14:26:42;;;;;;;1.23;1.13;;;;;;;;;;5097945;28;20647;-62
2023/03/22 14:29:10;;;;;;;1.90;1.10;;;;;;;;;;5097658;28;20201;-63
2023/03/22 14:31:37;;;;;;;1.23;1.07;;;;;;;;;;5086213;28;20219;-62
2023/03/22 14:34:04;;;;;;;1.47;1.30;;;;;;;;;;5077519;28;20290;-62
2023/03/22 14:36:36;;;;;;;2.03;0.97;;;;;;;;;;5077522;28;20213;-64
2023/03/22 14:39:06;;;;;;;7.23;2.33;;;;;;;;;;5078831;28;20558;-63
2023/03/22 14:41:33;;;;;;;11.43;2.23;;;;;;;;;;5081398;28;20281;-62
2023/03/22 14:44:00;;;;;;;2.23;1.07;;;;;;;;;;5070512;28;20202;-62
2023/03/22 14:46:32;;;;;;;1.73;1.30;;;;;;;;;;5067593;28;20213;-63
2023/03/22 14:49:00;;;;;;;2.83;1.17;;;;;;;;;;5073568;28;20191;-62
2023/03/22 14:51:30;;;;;;;1.43;0.90;;;;;;;;;;5080732;28;20646;-62
2023/03/22 14:53:58;;;;;;;1.70;1.30;;;;;;;;;;5080692;28;20237;-62
2023/03/22 14:56:28;;;;;;;1.40;0.93;;;;;;;;;;5080804;28;20721;-63